Dobbins Air Reserve Base Airport Marietta US
ICAO: KMGE
IATA: MGE
Category: Large
Scheduled Services: No

Elevation: 1068 ft
TransAlt. 18000 ft.

Airport Communications:
ATLANTA APP/DEP:121
ATIS:26.95
GND:125.3
NAVY OPS:34.02
ARNG OPS:47
PMSV METRO:27.475
94AW COMD POST:37.952
PTD:139.3
TWR:120.75

KMGE Zoom In..

If Map Doesn't Load, Click Here

Runways:

(A) RW 11 length 10002 ft width 300 ft
ILS 109.70 / hdg 109

(B) RW 29 length 10002 ft width 300 ft
ILS 111.35 / hdg 289

Location; KMGE
Day. 21 / Time. 13.56 Zulu
* Altimeter: 30.21
* Temperature: 25° c. 77°f.
* Wind from: 120° Speed 03 kn.
Dewpoint: 21° c.
Visibility: 10 Statute Miles.
Clouds: Broken 1500 ft.

KMGE 211356Z 12003KT 10SM BKN015 25/21 A3021 RMK AO2A SLP221 T02500209 $


Wind From 120°
Speed 03 kn.

 
 
jpsmedia.com for Web Design worldairports.se 2018   terms of use